createdAt,value
2023-05-22T00:08:03.108Z,17.4
2023-05-22T00:28:03.007Z,17.1
2023-05-22T00:48:03.023Z,16.8
2023-05-22T01:08:02.960Z,16.6
2023-05-22T01:28:02.941Z,15.9
2023-05-22T01:48:02.920Z,16.0
2023-05-22T02:08:02.901Z,16.5
2023-05-22T02:28:02.872Z,16.2
2023-05-22T02:48:02.825Z,16.2
2023-05-22T03:08:02.834Z,16.3
2023-05-22T03:28:02.850Z,16.0
2023-05-22T03:48:02.769Z,15.8
2023-05-22T04:08:02.747Z,15.9
2023-05-22T04:28:02.722Z,15.9
2023-05-22T04:48:02.699Z,16.3
2023-05-22T05:08:02.704Z,16.1
2023-05-22T05:28:02.644Z,16.5
2023-05-22T05:48:02.627Z,16.8
2023-05-22T06:08:02.602Z,17.1
2023-05-22T06:28:02.597Z,17.4
2023-05-22T06:48:02.578Z,17.7
2023-05-22T07:08:02.600Z,18.2
2023-05-22T07:28:02.533Z,18.7
2023-05-22T07:48:02.647Z,19.3
2023-05-22T08:08:02.457Z,20.0
2023-05-22T08:28:02.601Z,20.4
2023-05-22T08:48:02.412Z,20.8
2023-05-22T09:08:02.451Z,21.3
2023-05-22T09:28:02.354Z,21.8
2023-05-22T09:48:02.357Z,22.5
2023-05-22T10:08:02.337Z,22.6
2023-05-22T10:28:02.805Z,22.9
2023-05-22T10:48:02.429Z,23.1
2023-05-22T11:08:02.398Z,23.4
2023-05-22T11:28:02.248Z,23.9
2023-05-22T11:48:02.191Z,24.7
2023-05-22T12:08:02.158Z,25.3
2023-05-22T12:28:02.190Z,25.8
2023-05-22T12:48:02.132Z,26.3
2023-05-22T13:08:02.110Z,26.8
2023-05-22T13:28:02.048Z,27.2
2023-05-22T13:48:02.053Z,27.5
2023-05-22T14:08:02.010Z,27.8
2023-05-22T14:48:01.967Z,26.6
2023-05-22T15:08:01.990Z,25.9
2023-05-22T16:08:01.854Z,24.7
2023-05-22T16:28:01.852Z,24.1
2023-05-22T16:48:01.811Z,23.9
2023-05-22T17:08:01.797Z,23.4
2023-05-22T17:28:01.857Z,22.9
2023-05-22T17:48:01.716Z,22.2
2023-05-22T18:08:01.685Z,21.8
2023-05-22T18:28:01.657Z,21.4
2023-05-22T18:48:01.625Z,21.6
2023-05-22T19:08:01.682Z,21.2
2023-05-22T19:28:01.590Z,20.9
2023-05-22T19:48:01.653Z,20.8
2023-05-22T20:08:01.530Z,20.6
2023-05-22T20:28:01.528Z,20.3
2023-05-22T20:48:01.484Z,19.8
2023-05-22T21:08:01.451Z,19.7
2023-05-22T21:28:01.427Z,19.9
2023-05-22T21:48:01.402Z,19.9
2023-05-22T22:08:01.372Z,19.8
2023-05-22T22:28:01.430Z,19.4
2023-05-22T22:48:01.349Z,19.2
2023-05-22T23:08:01.332Z,19.0
2023-05-22T23:28:01.277Z,18.8
2023-05-22T23:48:01.287Z,18.2
